Vremea acum in Orăștie - Romania

Vrei sa afli care e starea vremii acum in Arad - Romania? Dorim sa iti furnizam starea vremii pentru Arad - Romania. Starea vremii Arad - Romania pentru astazi.

Vremea acum in Orăștie

Temperatura: 7.6 °C

Este: Senin
Se simte ca: 7.6 °C
Innorat: 5 %
Precipitatii: 0 %
Presiune atmosferica: 1018 hPa
Umiditate: 83%
Vizibilitate: 10 km
Vantul bate din SE cu 3.6 km/h

Evolutia vremii in Orăștie pe ore

Ora: 05:00
Senin
Temperatura: 7.6°C
Sansa de precipitatii: 0%
Ora Descriere Temp Se simte Precipitatii Umiditate Vant
00:00Senin9.6°9.6°0%75%S 1.4 KM/H
01:00Senin9.1°9.1°0%77%S 1.4 KM/H
02:00Senin8.6°8.6°0%79%S 1.4 KM/H
03:00Senin8.2°8.2°0%81%SSE 0.7 KM/H
04:00Senin7.8°7.8°0%82%SE 0.7 KM/H
05:00Senin7.6°7.6°0%83%SE 3.6 KM/H
06:00Senin7.3°7.3°0%84%SSE 1.8 KM/H
07:00Senin8.2°8.2°0%81%SE 1.4 KM/H
08:00Senin12.8°12.8°0%70%SE 2.5 KM/H
09:00Senin15.9°15.9°0%61%ESE 4 KM/H
10:00Senin18.3°18.3°0%53%ESE 4.7 KM/H
11:00Senin20.4°20.4°0%48%ESE 4.7 KM/H
12:00Senin22.2°24.2°0%42%ESE 5.8 KM/H
13:00Senin23.6°24.4°0%36%E 6.1 KM/H
14:00Senin24.7°24.6°0%31%E 6.5 KM/H
15:00Senin25.3°24.8°0%29%E 5 KM/H
16:00Senin25.3°24.8°0%29%NNE 3.2 KM/H
17:00Senin24.9°24.7°0%31%NW 4.7 KM/H
18:00Senin24.1°24.6°0%36%WNW 6.1 KM/H
19:00Senin21.3°21.3°0%49%W 6.1 KM/H
20:00Senin16.7°16.7°0%59%W 5 KM/H
21:00Senin14.3°14.3°0%64%W 2.2 KM/H
22:00Senin12.9°12.9°0%69%SW 0.7 KM/H
23:00Senin12.2°12.2°0%70%S 1.8 KM/H




tutorials